createdAt,value
2019-05-23T00:00:06.984Z,10.4
2019-05-23T00:01:07.020Z,10.5
2019-05-23T00:02:07.108Z,10.5
2019-05-23T00:03:07.091Z,10.5
2019-05-23T00:04:07.177Z,10.4
2019-05-23T00:05:07.197Z,10.5
2019-05-23T00:06:07.204Z,10.5
2019-05-23T00:07:07.185Z,10.4
2019-05-23T00:08:07.211Z,10.5
2019-05-23T00:09:07.256Z,10.5
2019-05-23T00:10:07.314Z,10.4
2019-05-23T00:11:07.314Z,10.4
2019-05-23T00:12:07.354Z,10.4
2019-05-23T00:13:07.352Z,10.4
2019-05-23T00:14:07.370Z,10.4
2019-05-23T00:15:07.487Z,10.4
2019-05-23T00:16:08.510Z,10.4
2019-05-23T00:17:07.517Z,10.4
2019-05-23T00:18:07.519Z,10.4
2019-05-23T00:19:07.535Z,10.3
2019-05-23T00:20:07.571Z,10.4
2019-05-23T00:21:07.632Z,10.3
2019-05-23T00:22:07.635Z,10.2
2019-05-23T00:23:07.733Z,10.3
2019-05-23T00:24:07.706Z,10.3
2019-05-23T00:25:07.737Z,10.3
2019-05-23T00:26:07.783Z,10.2
2019-05-23T00:27:07.803Z,10.2
2019-05-23T00:28:07.895Z,10.3
2019-05-23T00:29:10.247Z,10.2
2019-05-23T00:30:07.870Z,10.2
2019-05-23T00:31:07.915Z,10.2
2019-05-23T00:32:07.938Z,10.2
2019-05-23T00:33:07.972Z,10.2
2019-05-23T00:34:08.002Z,10.2
2019-05-23T00:35:07.994Z,10.1
2019-05-23T00:36:08.032Z,10.1
2019-05-23T00:37:08.046Z,10.2
2019-05-23T00:38:08.071Z,10.1
2019-05-23T00:39:08.091Z,10.2
2019-05-23T00:40:08.075Z,10.2
2019-05-23T00:41:08.088Z,10.1
2019-05-23T00:42:08.111Z,10.1
2019-05-23T00:43:08.148Z,10.1
2019-05-23T00:44:08.176Z,10.1
2019-05-23T00:45:08.159Z,10.2
2019-05-23T00:46:08.162Z,10.2
2019-05-23T00:47:08.181Z,10.2
2019-05-23T00:48:08.192Z,10.2
2019-05-23T00:49:08.242Z,10.1
2019-05-23T00:50:08.197Z,10.1
2019-05-23T00:51:08.203Z,10.1
2019-05-23T00:52:08.231Z,10.1
2019-05-23T00:53:08.250Z,10.1
2019-05-23T00:54:08.277Z,10.1
2019-05-23T00:55:08.222Z,10
2019-05-23T00:56:08.261Z,10
2019-05-23T00:57:08.251Z,10
2019-05-23T00:58:08.231Z,10
2019-05-23T00:59:08.287Z,10.1
2019-05-23T01:00:08.242Z,10
2019-05-23T01:01:08.270Z,10
2019-05-23T01:02:08.316Z,9.9
2019-05-23T01:03:08.292Z,9.9
2019-05-23T01:04:08.419Z,10
2019-05-23T01:05:08.446Z,10
2019-05-23T01:06:08.450Z,10
2019-05-23T01:07:08.472Z,9.9
2019-05-23T01:08:08.528Z,9.9
2019-05-23T01:09:08.577Z,9.9
2019-05-23T01:10:08.580Z,9.9
2019-05-23T01:11:08.624Z,10
2019-05-23T01:12:08.731Z,9.9
2019-05-23T01:13:08.759Z,9.9
2019-05-23T01:14:08.762Z,9.9
2019-05-23T01:15:08.853Z,9.9
2019-05-23T01:16:08.886Z,9.9
2019-05-23T01:17:08.930Z,9.8
2019-05-23T01:18:09.001Z,9.8
2019-05-23T01:19:09.028Z,9.8
2019-05-23T01:20:09.111Z,9.8
2019-05-23T01:21:09.165Z,9.8
2019-05-23T01:22:09.211Z,9.8
2019-05-23T01:23:09.243Z,9.7
2019-05-23T01:24:09.293Z,9.9
2019-05-23T01:25:09.380Z,9.8
2019-05-23T01:26:09.410Z,9.7
2019-05-23T01:27:09.572Z,9.8
2019-05-23T01:28:09.512Z,9.8
2019-05-23T01:29:09.565Z,9.7
2019-05-23T01:30:09.648Z,9.7
2019-05-23T01:31:09.631Z,9.8
2019-05-23T01:32:09.666Z,9.8
2019-05-23T01:33:09.738Z,9.8
2019-05-23T01:34:09.837Z,9.8
2019-05-23T01:35:09.862Z,9.7
2019-05-23T01:36:09.916Z,9.7
2019-05-23T01:37:10.013Z,9.7
2019-05-23T01:38:10.027Z,9.7
2019-05-23T01:39:10.034Z,9.7
2019-05-23T01:40:10.066Z,9.7
2019-05-23T01:41:10.148Z,9.7
2019-05-23T01:42:10.153Z,9.7
2019-05-23T01:43:10.233Z,9.7
2019-05-23T01:44:10.215Z,9.7
2019-05-23T01:45:10.257Z,9.7
2019-05-23T01:46:10.324Z,9.6
2019-05-23T01:47:10.354Z,9.6
2019-05-23T01:48:10.358Z,9.6
2019-05-23T01:49:10.375Z,9.5
2019-05-23T01:50:10.442Z,9.4
2019-05-23T01:51:10.448Z,9.3
2019-05-23T01:52:10.455Z,9.4
2019-05-23T01:53:10.452Z,9.4
2019-05-23T01:54:10.501Z,9.5
2019-05-23T01:55:10.522Z,9.5
2019-05-23T01:56:10.560Z,9.3
2019-05-23T01:57:10.561Z,9.5
2019-05-23T01:58:10.593Z,9.2
2019-05-23T01:59:10.639Z,9.3
2019-05-23T02:00:11.896Z,9.5
2019-05-23T02:01:10.693Z,9.5
2019-05-23T02:02:10.711Z,9.3
2019-05-23T02:03:10.734Z,9.5
2019-05-23T02:04:10.775Z,9.5
2019-05-23T02:05:10.773Z,9.5
2019-05-23T02:06:10.789Z,9.4
2019-05-23T02:07:10.826Z,9.4
2019-05-23T02:08:10.886Z,9.3
2019-05-23T02:09:10.889Z,9.3
2019-05-23T02:10:10.868Z,9.3
2019-05-23T02:11:10.916Z,9.3
2019-05-23T02:12:10.955Z,9.2
2019-05-23T02:13:11.003Z,9.3
2019-05-23T02:14:10.984Z,9.3
2019-05-23T02:15:11.032Z,9.2
2019-05-23T02:16:11.031Z,9
2019-05-23T02:17:11.068Z,8.8
2019-05-23T02:18:11.097Z,8.9
2019-05-23T02:19:13.633Z,9.2
2019-05-23T02:20:11.161Z,9.3
2019-05-23T02:21:11.174Z,9.3
2019-05-23T02:22:11.215Z,9.3
2019-05-23T02:23:11.211Z,9.2
2019-05-23T02:24:11.218Z,9.1
2019-05-23T02:25:11.282Z,9.2
2019-05-23T02:26:11.282Z,9.2
2019-05-23T02:27:11.285Z,9.3
2019-05-23T02:28:11.343Z,9.2
2019-05-23T02:29:11.326Z,9.2
2019-05-23T02:30:32.071Z,9.2
2019-05-23T02:31:11.378Z,9.2
2019-05-23T02:32:11.383Z,9.2
2019-05-23T02:33:11.391Z,9.3
2019-05-23T02:34:11.437Z,9.3
2019-05-23T02:35:11.407Z,9.1
2019-05-23T02:36:11.551Z,9
2019-05-23T02:37:11.432Z,8.9
2019-05-23T02:38:11.460Z,8.9
2019-05-23T02:39:11.473Z,8.9
2019-05-23T02:40:11.474Z,9
2019-05-23T02:41:11.594Z,8.9
2019-05-23T02:42:11.527Z,8.9
2019-05-23T02:43:11.506Z,9
2019-05-23T02:44:11.504Z,8.8
2019-05-23T02:45:11.505Z,8.8
2019-05-23T02:46:11.533Z,8.8
2019-05-23T02:47:11.575Z,8.8
2019-05-23T02:48:11.529Z,8.9
2019-05-23T02:49:11.536Z,8.9
2019-05-23T02:50:11.537Z,8.9
2019-05-23T02:51:11.535Z,9
2019-05-23T02:52:11.581Z,8.9
2019-05-23T02:53:11.576Z,8.9
2019-05-23T02:54:11.664Z,8.9
2019-05-23T02:55:11.698Z,8.9
2019-05-23T02:56:11.737Z,9
2019-05-23T02:57:11.851Z,8.8
2019-05-23T02:58:11.786Z,8.8
2019-05-23T02:59:11.882Z,8.9
2019-05-23T03:00:11.926Z,8.8
2019-05-23T03:01:12.023Z,8.8
2019-05-23T03:02:12.057Z,8.8
2019-05-23T03:03:12.124Z,8.8
2019-05-23T03:04:12.101Z,8.8
2019-05-23T03:05:12.126Z,8.7
2019-05-23T03:06:12.166Z,8.7
2019-05-23T03:07:12.183Z,8.7
2019-05-23T03:08:12.239Z,8.6
2019-05-23T03:09:12.275Z,8.5
2019-05-23T03:10:12.301Z,8.5
2019-05-23T03:11:12.335Z,8.6
2019-05-23T03:12:12.430Z,8.5
2019-05-23T03:13:12.341Z,8.5
2019-05-23T03:14:12.372Z,8.6
2019-05-23T03:15:12.399Z,8.7
2019-05-23T03:16:12.481Z,8.6
2019-05-23T03:17:12.528Z,8.6
2019-05-23T03:18:12.560Z,8.6
2019-05-23T03:19:12.598Z,8.5
2019-05-23T03:20:12.619Z,8.5
2019-05-23T03:21:12.724Z,8.6
2019-05-23T03:22:12.746Z,8.5
2019-05-23T03:23:12.807Z,8.6
2019-05-23T03:24:12.802Z,8.6
2019-05-23T03:25:12.905Z,8.6
2019-05-23T03:26:12.923Z,8.6
2019-05-23T03:27:12.999Z,8.7
2019-05-23T03:28:13.016Z,8.6
2019-05-23T03:29:13.069Z,8.5
2019-05-23T03:30:13.123Z,8.6
2019-05-23T03:31:28.090Z,8.6
2019-05-23T03:32:13.181Z,8.5
2019-05-23T03:33:13.325Z,8.5
2019-05-23T03:34:13.277Z,8.6
2019-05-23T03:35:13.366Z,8.6
2019-05-23T03:36:13.408Z,8.6
2019-05-23T03:37:45.711Z,8.6
2019-05-23T03:38:13.447Z,8.6
2019-05-23T03:39:13.498Z,8.6
2019-05-23T03:40:13.634Z,8.7
2019-05-23T03:41:13.625Z,8.7
2019-05-23T03:42:13.578Z,8.5
2019-05-23T03:43:13.661Z,8.5
2019-05-23T03:44:13.673Z,8.5
2019-05-23T03:45:13.669Z,8.6
2019-05-23T03:46:13.724Z,8.6
2019-05-23T03:47:13.777Z,8.6
2019-05-23T03:48:13.786Z,8.6
2019-05-23T03:49:13.824Z,8.5
2019-05-23T03:50:13.904Z,8.5
2019-05-23T03:51:13.874Z,8.5
2019-05-23T03:52:13.932Z,8.5
2019-05-23T03:53:13.944Z,8.5
2019-05-23T03:54:13.972Z,8.4
2019-05-23T03:55:14.054Z,8.5
2019-05-23T03:56:14.041Z,8.4
2019-05-23T03:57:14.116Z,8.5
2019-05-23T03:58:14.084Z,8.5
2019-05-23T03:59:14.105Z,8.4
2019-05-23T04:00:14.201Z,8.4
2019-05-23T04:01:14.205Z,8.5
2019-05-23T04:02:14.221Z,8.5
2019-05-23T04:03:14.246Z,8.5
2019-05-23T04:04:14.258Z,8.4
2019-05-23T04:05:14.282Z,8.4
2019-05-23T04:06:14.330Z,8.4
2019-05-23T04:07:14.350Z,8.5
2019-05-23T04:08:14.372Z,8.5
2019-05-23T04:09:14.428Z,8.5
2019-05-23T04:10:14.403Z,8.5
2019-05-23T04:11:14.481Z,8.5
2019-05-23T04:12:14.493Z,8.5
2019-05-23T04:13:14.478Z,8.5
2019-05-23T04:14:14.508Z,8.6
2019-05-23T04:15:14.539Z,8.6
2019-05-23T04:16:14.567Z,8.6
2019-05-23T04:17:14.625Z,8.6
2019-05-23T04:18:14.606Z,8.6
2019-05-23T04:19:14.619Z,8.7
2019-05-23T04:20:14.644Z,8.7
2019-05-23T04:21:14.671Z,8.7
2019-05-23T04:22:14.683Z,8.6
2019-05-23T04:23:14.664Z,8.7
2019-05-23T04:24:14.713Z,8.7
2019-05-23T04:25:14.712Z,8.8
2019-05-23T04:26:14.731Z,8.8
2019-05-23T04:27:14.785Z,8.9
2019-05-23T04:28:14.763Z,8.8
2019-05-23T04:29:14.770Z,8.8
2019-05-23T04:30:14.782Z,8.8
2019-05-23T04:31:14.777Z,8.8
2019-05-23T04:32:14.817Z,8.8
2019-05-23T04:33:14.814Z,8.8
2019-05-23T04:34:14.818Z,8.9
2019-05-23T04:35:14.828Z,8.9
2019-05-23T04:36:14.824Z,8.8
2019-05-23T04:37:14.880Z,9
2019-05-23T04:38:14.897Z,9.1
2019-05-23T04:39:14.888Z,9.1
2019-05-23T04:40:14.859Z,9.2
2019-05-23T04:41:14.861Z,9.2
2019-05-23T04:42:14.905Z,9.2
2019-05-23T04:43:14.863Z,9.1
2019-05-23T04:44:14.889Z,9
2019-05-23T04:45:14.899Z,9
2019-05-23T04:46:14.932Z,8.9
2019-05-23T04:47:14.979Z,8.9
2019-05-23T04:48:15.011Z,9
2019-05-23T04:49:15.073Z,8.9
2019-05-23T04:50:15.119Z,8.7
2019-05-23T04:51:15.134Z,8.8
2019-05-23T04:52:15.138Z,8.6
2019-05-23T04:53:15.161Z,8.7
2019-05-23T04:54:15.192Z,8.6
2019-05-23T04:55:15.293Z,8.8
2019-05-23T04:56:15.299Z,8.8
2019-05-23T04:57:15.366Z,8.7
2019-05-23T04:58:15.403Z,8.8
2019-05-23T04:59:15.472Z,8.9
2019-05-23T05:00:15.489Z,9
2019-05-23T05:01:15.505Z,9
2019-05-23T05:02:25.295Z,8.8
2019-05-23T05:03:18.054Z,8.9
2019-05-23T05:04:15.687Z,8.9
2019-05-23T05:05:15.729Z,8.9
2019-05-23T05:06:15.739Z,9
2019-05-23T05:07:15.787Z,9
2019-05-23T05:08:15.861Z,9.1
2019-05-23T05:09:15.972Z,9
2019-05-23T05:10:15.891Z,8.9
2019-05-23T05:11:15.954Z,8.8
2019-05-23T05:12:15.999Z,8.7
2019-05-23T05:13:16.030Z,8.8
2019-05-23T05:14:16.149Z,8.9
2019-05-23T05:15:16.161Z,8.7
2019-05-23T05:16:16.168Z,8.8
2019-05-23T05:17:16.179Z,8.8
2019-05-23T05:18:16.269Z,8.7
2019-05-23T05:19:16.290Z,8.6
2019-05-23T05:20:16.327Z,8.8
2019-05-23T05:21:16.382Z,8.7
2019-05-23T05:22:16.433Z,8.8
2019-05-23T05:23:16.511Z,8.8
2019-05-23T05:24:16.519Z,8.8
2019-05-23T05:25:16.587Z,8.8
2019-05-23T05:26:16.610Z,8.8
2019-05-23T05:27:16.649Z,8.8
2019-05-23T05:28:16.727Z,8.9
2019-05-23T05:29:16.709Z,8.9
2019-05-23T05:30:16.770Z,8.8
2019-05-23T05:31:16.777Z,8.7
2019-05-23T05:32:16.810Z,8.5
2019-05-23T05:33:16.900Z,8.6
2019-05-23T05:34:16.923Z,8.9
2019-05-23T05:35:16.992Z,9
2019-05-23T05:36:17.031Z,8.9
2019-05-23T05:37:17.055Z,8.9
2019-05-23T05:38:17.127Z,8.9
2019-05-23T05:39:17.095Z,8.8
2019-05-23T05:40:17.124Z,8.8
2019-05-23T05:41:17.125Z,8.8
2019-05-23T05:42:17.185Z,8.6
2019-05-23T05:43:17.211Z,8.8
2019-05-23T05:44:17.232Z,8.9
2019-05-23T05:45:17.235Z,8.9
2019-05-23T05:46:17.269Z,8.9
2019-05-23T05:47:17.227Z,9.1
2019-05-23T05:48:17.327Z,9.1
2019-05-23T05:49:17.289Z,9.1
2019-05-23T05:50:17.343Z,8.9
2019-05-23T05:51:17.365Z,8.8
2019-05-23T05:52:17.387Z,8.5
2019-05-23T05:53:17.437Z,8.6
2019-05-23T05:54:17.425Z,8.4
2019-05-23T05:55:17.490Z,8.5
2019-05-23T05:56:17.834Z,8.5
2019-05-23T05:57:17.533Z,8.5
2019-05-23T05:58:17.623Z,8.7
2019-05-23T05:59:17.598Z,8.1
2019-05-23T06:00:17.664Z,8.4
2019-05-23T06:01:32.651Z,8.5
2019-05-23T06:02:17.739Z,8.6
2019-05-23T06:03:17.750Z,8.4
2019-05-23T06:04:17.756Z,8.5
2019-05-23T06:05:17.870Z,8.4
2019-05-23T06:06:17.847Z,8.5
2019-05-23T06:07:17.878Z,8.5
2019-05-23T06:08:17.890Z,8.8
2019-05-23T06:09:17.950Z,8.7
2019-05-23T06:10:17.958Z,8.9
2019-05-23T06:11:17.988Z,8.6
2019-05-23T06:12:18.026Z,8.6
2019-05-23T06:13:18.028Z,8.3
2019-05-23T06:14:18.032Z,7.5
2019-05-23T06:15:18.078Z,7.6
2019-05-23T06:16:18.216Z,8
2019-05-23T06:17:18.190Z,7.8
2019-05-23T06:18:18.136Z,7.9
2019-05-23T06:19:18.234Z,8.1
2019-05-23T06:20:18.195Z,8.3
2019-05-23T06:21:18.246Z,8.4
2019-05-23T06:22:18.294Z,8.3
2019-05-23T06:23:18.230Z,8.4
2019-05-23T06:24:18.248Z,8.6
2019-05-23T06:25:18.322Z,8.7
2019-05-23T06:26:18.366Z,8.4
2019-05-23T06:27:18.406Z,8.3
2019-05-23T06:28:18.386Z,8.2
2019-05-23T06:29:18.517Z,8
2019-05-23T06:30:18.358Z,8
2019-05-23T06:31:18.416Z,8.2
2019-05-23T06:32:18.394Z,7.8
2019-05-23T06:33:23.032Z,7.8
2019-05-23T06:34:18.440Z,7.8
2019-05-23T06:35:18.437Z,8.1
2019-05-23T06:36:18.451Z,8.2
2019-05-23T06:37:18.476Z,8.3
2019-05-23T06:38:18.509Z,7.7
2019-05-23T06:39:19.524Z,7.4
2019-05-23T06:40:18.491Z,7.4
2019-05-23T06:41:18.475Z,7.8
2019-05-23T06:42:18.602Z,7.8
2019-05-23T06:43:18.538Z,7.7
2019-05-23T06:44:18.811Z,7.5
2019-05-23T06:45:18.545Z,8
2019-05-23T06:46:18.566Z,7.6
2019-05-23T06:47:18.527Z,7.8
2019-05-23T06:48:18.533Z,7.6
2019-05-23T06:49:18.524Z,7.9
2019-05-23T06:50:18.546Z,8.1
2019-05-23T06:51:18.532Z,7.8
2019-05-23T06:52:18.595Z,7.9
2019-05-23T06:53:18.666Z,7.6
2019-05-23T06:54:18.660Z,7.3
2019-05-23T06:55:18.796Z,6.9
2019-05-23T06:56:18.809Z,7.4
2019-05-23T06:57:18.825Z,7.3
2019-05-23T06:58:19.155Z,7.4
2019-05-23T06:59:18.883Z,7.3
2019-05-23T07:00:18.896Z,7.4
2019-05-23T07:01:18.917Z,7.5
2019-05-23T07:02:18.933Z,7.5
2019-05-23T07:03:18.942Z,7.8
2019-05-23T07:04:19.006Z,8
2019-05-23T07:05:19.167Z,8.2
2019-05-23T07:06:19.185Z,8.6
2019-05-23T07:07:19.204Z,8.4
2019-05-23T07:08:19.246Z,8.2
2019-05-23T07:09:19.282Z,8.4
2019-05-23T07:10:19.378Z,8.1
2019-05-23T07:11:19.435Z,8.6
2019-05-23T07:12:19.474Z,7.8
2019-05-23T07:13:19.546Z,7.7
2019-05-23T07:14:19.665Z,7.7
2019-05-23T07:15:19.668Z,7.9
2019-05-23T07:16:19.741Z,7.8
2019-05-23T07:17:19.787Z,8
2019-05-23T07:18:19.793Z,8.4
2019-05-23T07:19:19.862Z,8.4
2019-05-23T07:20:19.916Z,8.3
2019-05-23T07:21:19.972Z,9.2
2019-05-23T07:22:20.051Z,8.8
2019-05-23T07:23:20.077Z,9.2
2019-05-23T07:24:20.113Z,9.5
2019-05-23T07:25:20.160Z,9.7
2019-05-23T07:26:20.171Z,8.5
2019-05-23T07:27:20.341Z,8.3
2019-05-23T07:28:20.255Z,8.2
2019-05-23T07:29:20.775Z,7.7
2019-05-23T07:30:20.353Z,8
2019-05-23T07:31:20.388Z,8.7
2019-05-23T07:32:20.476Z,8.5
2019-05-23T07:33:20.496Z,8.3
2019-05-23T07:34:20.538Z,9.1
2019-05-23T07:35:20.581Z,9.9
2019-05-23T07:36:20.605Z,9.8
2019-05-23T07:37:20.682Z,9
2019-05-23T07:38:20.672Z,8.6
2019-05-23T07:39:20.731Z,8.7
2019-05-23T07:40:20.780Z,8.9
2019-05-23T07:41:20.832Z,8.3
2019-05-23T07:42:20.864Z,8.5
2019-05-23T07:43:20.900Z,8.9
2019-05-23T07:44:20.958Z,8
2019-05-23T07:45:20.956Z,8
2019-05-23T07:46:20.986Z,8.1
2019-05-23T07:47:21.072Z,8.4
2019-05-23T07:48:21.079Z,8.7
2019-05-23T07:49:21.111Z,8.9
2019-05-23T07:50:21.112Z,9
2019-05-23T07:51:21.182Z,8.7
2019-05-23T07:52:21.220Z,8.2
2019-05-23T07:53:22.263Z,8.8
2019-05-23T07:54:21.300Z,8.2
2019-05-23T07:55:21.528Z,8.3
2019-05-23T07:56:21.344Z,8.3
2019-05-23T07:57:21.533Z,8.3
2019-05-23T07:58:21.360Z,8.4
2019-05-23T07:59:21.388Z,8.5
2019-05-23T08:00:21.429Z,8.7
2019-05-23T08:01:22.494Z,8.7
2019-05-23T08:02:25.394Z,8.6
2019-05-23T08:03:21.515Z,8.6
2019-05-23T08:04:22.544Z,8.8
2019-05-23T08:05:21.487Z,8.4
2019-05-23T08:06:21.561Z,8.5
2019-05-23T08:07:21.549Z,8.9
2019-05-23T08:08:21.589Z,8.7
2019-05-23T08:09:21.678Z,8.8
2019-05-23T08:10:33.410Z,8.9
2019-05-23T08:11:21.757Z,8.6
2019-05-23T08:12:21.802Z,8.7
2019-05-23T08:13:21.687Z,8.7
2019-05-23T08:14:21.767Z,8.6
2019-05-23T08:15:21.737Z,8.4
2019-05-23T08:16:21.776Z,8.1
2019-05-23T08:17:21.799Z,8.5
2019-05-23T08:18:21.797Z,8.4
2019-05-23T08:19:21.859Z,8.5
2019-05-23T08:20:21.839Z,8.4
2019-05-23T08:21:21.871Z,8.9
2019-05-23T08:22:24.379Z,9
2019-05-23T08:23:21.903Z,9
2019-05-23T08:24:21.936Z,9.1
2019-05-23T08:25:22.044Z,8.8
2019-05-23T08:26:21.969Z,9.1
2019-05-23T08:27:21.950Z,9.2
2019-05-23T08:28:21.954Z,9.5
2019-05-23T08:29:25.778Z,9.5
2019-05-23T08:30:22.032Z,9.3
2019-05-23T08:31:21.996Z,9
2019-05-23T08:32:22.035Z,9
2019-05-23T08:33:22.010Z,8.9
2019-05-23T08:34:39.805Z,9
2019-05-23T08:35:22.067Z,8.8
2019-05-23T08:36:22.054Z,8.9
2019-05-23T08:37:22.072Z,9
2019-05-23T08:38:22.081Z,8.8
2019-05-23T08:39:22.103Z,8.5
2019-05-23T08:40:22.097Z,8.3
2019-05-23T08:41:22.120Z,8.4
2019-05-23T08:42:22.141Z,9
2019-05-23T08:43:22.101Z,8.7
2019-05-23T08:44:22.113Z,8.6
2019-05-23T08:45:22.091Z,8.7
2019-05-23T08:46:22.129Z,8.9
2019-05-23T08:47:22.135Z,9
2019-05-23T08:48:22.126Z,8.9
2019-05-23T08:49:22.147Z,8.2
2019-05-23T08:50:22.165Z,8.7
2019-05-23T08:51:22.264Z,8.2
2019-05-23T08:52:22.281Z,8.2
2019-05-23T08:53:22.376Z,8.5
2019-05-23T08:54:22.403Z,9.4
2019-05-23T08:55:22.419Z,8.8
2019-05-23T08:56:22.492Z,8.5
2019-05-23T08:57:22.508Z,9
2019-05-23T08:58:22.617Z,8.5
2019-05-23T08:59:22.603Z,8.3
2019-05-23T09:00:22.684Z,8.9
2019-05-23T09:01:22.936Z,9
2019-05-23T09:02:22.738Z,8.6
2019-05-23T09:03:22.833Z,8.4
2019-05-23T09:04:22.815Z,8.3
2019-05-23T09:05:22.873Z,8.8
2019-05-23T09:06:22.904Z,8.6
2019-05-23T09:07:22.933Z,8.8
2019-05-23T09:08:23.057Z,8.4
2019-05-23T09:09:29.414Z,8.2
2019-05-23T09:10:23.100Z,8.3
2019-05-23T09:11:23.115Z,7.9
2019-05-23T09:12:23.146Z,7.7
2019-05-23T09:13:23.156Z,8.3
2019-05-23T09:14:23.252Z,8.6
2019-05-23T09:15:23.324Z,7.9
2019-05-23T09:16:23.339Z,8
2019-05-23T09:17:23.347Z,8.3
2019-05-23T09:18:23.416Z,8.1
2019-05-23T09:19:23.438Z,7.5
2019-05-23T09:20:23.517Z,7.3
2019-05-23T09:21:23.503Z,7.2
2019-05-23T09:22:23.520Z,7.5
2019-05-23T09:23:23.592Z,7.4
2019-05-23T09:24:23.617Z,7.9
2019-05-23T09:25:23.686Z,7.6
2019-05-23T09:26:23.669Z,8.3
2019-05-23T09:27:23.742Z,8.5
2019-05-23T09:28:23.846Z,8
2019-05-23T09:29:23.840Z,8
2019-05-23T09:30:23.873Z,8.2
2019-05-23T09:31:23.876Z,8.2
2019-05-23T09:32:23.933Z,8.1
2019-05-23T09:33:23.987Z,8.4
2019-05-23T09:34:23.974Z,7.4
2019-05-23T09:35:24.054Z,7.6
2019-05-23T09:36:24.040Z,7.8
2019-05-23T09:37:24.278Z,7.9
2019-05-23T09:38:24.095Z,7.6
2019-05-23T09:39:24.155Z,7.8
2019-05-23T09:40:24.201Z,8.4
2019-05-23T09:41:24.213Z,8.3
2019-05-23T09:42:24.219Z,7.2
2019-05-23T09:43:24.224Z,7.4
2019-05-23T09:44:24.298Z,7.1
2019-05-23T09:45:24.338Z,7
2019-05-23T09:46:24.406Z,7.6
2019-05-23T09:47:24.363Z,7.3
2019-05-23T09:48:24.438Z,7
2019-05-23T09:49:24.403Z,7.3
2019-05-23T09:50:24.487Z,7.2
2019-05-23T09:51:24.834Z,8.5
2019-05-23T09:52:24.452Z,7.9
2019-05-23T09:53:24.477Z,7.8
2019-05-23T09:54:24.527Z,7
2019-05-23T09:55:24.536Z,7.5
2019-05-23T09:56:24.618Z,7.1
2019-05-23T09:57:24.613Z,7.4
2019-05-23T09:58:24.574Z,7.9
2019-05-23T09:59:24.585Z,8.2
2019-05-23T10:00:24.597Z,7.7
2019-05-23T10:01:26.864Z,7.4
2019-05-23T10:02:24.600Z,7.1
2019-05-23T10:03:24.711Z,7.4
2019-05-23T10:04:24.644Z,7.6
2019-05-23T10:05:40.602Z,7.3
2019-05-23T10:06:24.659Z,7.5
2019-05-23T10:07:24.681Z,8
2019-05-23T10:08:24.694Z,7.6
2019-05-23T10:09:24.803Z,7.3
2019-05-23T10:10:24.741Z,7
2019-05-23T10:11:24.748Z,7.6
2019-05-23T10:12:24.768Z,7.8
2019-05-23T10:13:38.183Z,6.8
2019-05-23T10:14:24.821Z,6.7
2019-05-23T10:15:24.809Z,7
2019-05-23T10:16:24.823Z,7.5
2019-05-23T10:17:24.920Z,7.5
2019-05-23T10:18:24.867Z,7.6
2019-05-23T10:19:24.919Z,6.9
2019-05-23T10:20:24.918Z,7.4
2019-05-23T10:21:24.903Z,6.9
2019-05-23T10:22:24.911Z,7.8
2019-05-23T10:23:24.916Z,7
2019-05-23T10:24:24.962Z,7.3
2019-05-23T10:25:24.977Z,6.6
2019-05-23T10:26:24.947Z,6.7
2019-05-23T10:27:25.039Z,7.7
2019-05-23T10:28:24.976Z,7.1
2019-05-23T10:29:24.993Z,7.2
2019-05-23T10:30:24.973Z,7.8
2019-05-23T10:31:25.000Z,7.7
2019-05-23T10:32:24.981Z,8
2019-05-23T10:33:24.981Z,7.4
2019-05-23T10:34:25.029Z,7.3
2019-05-23T10:35:25.066Z,7.2
2019-05-23T10:36:25.102Z,8
2019-05-23T10:37:25.177Z,6.8
2019-05-23T10:38:29.042Z,7.5
2019-05-23T10:39:25.299Z,7.6
2019-05-23T10:40:25.305Z,7.5
2019-05-23T10:41:25.370Z,7.2
2019-05-23T10:42:25.402Z,6.4
2019-05-23T10:43:25.437Z,6.8
2019-05-23T10:44:25.550Z,7.8
2019-05-23T10:45:25.558Z,6.7
2019-05-23T10:46:25.639Z,6.9
2019-05-23T10:47:25.682Z,7.7
2019-05-23T10:48:25.742Z,6.7
2019-05-23T10:49:25.744Z,6.8
2019-05-23T10:50:25.806Z,7.4
2019-05-23T10:51:25.827Z,7.9
2019-05-23T10:52:25.904Z,8.1
2019-05-23T10:53:26.041Z,7.4
2019-05-23T10:54:25.959Z,7.7
2019-05-23T10:55:26.034Z,7.5
2019-05-23T10:56:26.114Z,8.5
2019-05-23T10:57:26.175Z,8
2019-05-23T10:58:26.165Z,7.4
2019-05-23T10:59:26.186Z,7.8
2019-05-23T11:00:26.284Z,7.4
2019-05-23T11:01:26.374Z,6.9
2019-05-23T11:02:27.187Z,8.4
2019-05-23T11:03:26.401Z,7.6
2019-05-23T11:04:26.460Z,7
2019-05-23T11:05:26.487Z,6.8
2019-05-23T11:06:26.514Z,7.5
2019-05-23T11:07:26.542Z,7.3
2019-05-23T11:08:28.699Z,7.2
2019-05-23T11:09:37.004Z,7.5
2019-05-23T11:10:26.679Z,7.9
2019-05-23T11:11:26.769Z,7.9
2019-05-23T11:12:26.805Z,8.3
2019-05-23T11:13:26.835Z,7.8
2019-05-23T11:14:26.878Z,7
2019-05-23T11:15:26.921Z,7.7
2019-05-23T11:16:26.913Z,7.2
2019-05-23T11:17:26.983Z,6.5
2019-05-23T11:18:27.076Z,6.2
2019-05-23T11:19:27.016Z,7.2
2019-05-23T11:20:27.101Z,6.1
2019-05-23T11:21:27.085Z,7.2
2019-05-23T11:22:27.132Z,8
2019-05-23T11:23:27.156Z,6.8
2019-05-23T11:24:27.232Z,7.3
2019-05-23T11:25:27.224Z,6.5
2019-05-23T11:26:27.279Z,6.4
2019-05-23T11:27:27.362Z,7.8
2019-05-23T11:28:27.354Z,7
2019-05-23T11:29:27.658Z,6.9
2019-05-23T11:30:27.620Z,7.7
2019-05-23T11:31:27.406Z,6.7
2019-05-23T11:32:27.463Z,7.3
2019-05-23T11:33:27.471Z,6.7
2019-05-23T11:34:27.515Z,5.8
2019-05-23T11:35:27.554Z,7
2019-05-23T11:36:35.261Z,7.5
2019-05-23T11:37:27.641Z,6.6
2019-05-23T11:38:27.641Z,7.1
2019-05-23T11:39:27.663Z,7.4
2019-05-23T11:40:27.737Z,7.2
2019-05-23T11:41:27.743Z,7.6
2019-05-23T11:42:27.789Z,6.8
2019-05-23T11:43:27.831Z,7
2019-05-23T11:44:27.835Z,7
2019-05-23T11:45:27.814Z,7
2019-05-23T11:46:27.908Z,7
2019-05-23T11:47:31.265Z,7
2019-05-23T11:48:28.416Z,6.1
2019-05-23T11:49:27.953Z,7.3
2019-05-23T11:50:27.960Z,6.3
2019-05-23T11:51:28.314Z,6.6
2019-05-23T11:52:28.021Z,6.3
2019-05-23T11:53:28.082Z,6.2
2019-05-23T11:54:28.267Z,7.3
2019-05-23T11:55:28.092Z,6.6
2019-05-23T11:56:28.356Z,8
2019-05-23T11:57:28.210Z,6.7
2019-05-23T11:58:32.026Z,6.2
2019-05-23T11:59:30.399Z,6.9
2019-05-23T12:00:28.419Z,7.6
2019-05-23T12:01:28.243Z,6.6
2019-05-23T12:02:28.299Z,8.1
2019-05-23T12:03:28.299Z,6.9
2019-05-23T12:04:28.324Z,7.4
2019-05-23T12:05:28.341Z,7.9
2019-05-23T12:06:28.319Z,8.5
2019-05-23T12:07:28.350Z,8.1
2019-05-23T12:08:28.351Z,7.8
2019-05-23T12:09:28.362Z,6.9
2019-05-23T12:10:28.426Z,7
2019-05-23T12:11:28.403Z,7.1
2019-05-23T12:12:28.395Z,5.9
2019-05-23T12:13:28.426Z,5.5
2019-05-23T12:14:28.430Z,5.6
2019-05-23T12:15:28.478Z,6.8
2019-05-23T12:16:28.487Z,6.9
2019-05-23T12:17:28.470Z,6.2
2019-05-23T12:18:28.497Z,6.9
2019-05-23T12:19:28.483Z,6.7
2019-05-23T12:20:28.505Z,6.4
2019-05-23T12:21:28.485Z,6.5
2019-05-23T12:22:28.612Z,7.4
2019-05-23T12:23:28.557Z,7.6
2019-05-23T12:24:28.777Z,8.5
2019-05-23T12:25:28.579Z,6.5
2019-05-23T12:26:28.598Z,7.3
2019-05-23T12:27:28.765Z,7.8
2019-05-23T12:28:28.706Z,6.7
2019-05-23T12:29:28.769Z,6.7
2019-05-23T12:30:28.864Z,7.3
2019-05-23T12:31:28.927Z,7.6
2019-05-23T12:32:28.928Z,7.5
2019-05-23T12:33:28.943Z,5.7
2019-05-23T12:34:29.043Z,5.4
2019-05-23T12:35:29.002Z,6.4
2019-05-23T12:36:29.064Z,6.1
2019-05-23T12:37:29.075Z,7.2
2019-05-23T12:38:29.102Z,7.4
2019-05-23T12:39:29.215Z,6.3
2019-05-23T12:40:29.218Z,6.9
2019-05-23T12:41:29.321Z,6.5
2019-05-23T12:42:29.333Z,7
2019-05-23T12:43:29.367Z,6.7
2019-05-23T12:44:29.447Z,6.1
2019-05-23T12:45:29.491Z,6.7
2019-05-23T12:46:29.610Z,6.7
2019-05-23T12:47:29.554Z,6.6
2019-05-23T12:48:29.549Z,6.9
2019-05-23T12:49:29.585Z,6.9
2019-05-23T12:50:29.737Z,7
2019-05-23T12:51:29.722Z,8
2019-05-23T12:52:29.719Z,7.2
2019-05-23T12:53:29.783Z,6.8
2019-05-23T12:54:29.809Z,5.4
2019-05-23T12:55:29.817Z,6.2
2019-05-23T12:56:29.881Z,6.8
2019-05-23T12:57:29.903Z,6.3
2019-05-23T12:58:29.933Z,6.5
2019-05-23T12:59:29.995Z,5.8
2019-05-23T13:00:30.054Z,6.2
2019-05-23T13:01:30.115Z,6.2
2019-05-23T13:02:30.162Z,6.3
2019-05-23T13:03:30.192Z,6.6
2019-05-23T13:04:30.280Z,6.9
2019-05-23T13:05:30.224Z,6.9
2019-05-23T13:06:30.269Z,6.6
2019-05-23T13:07:36.072Z,6.5
2019-05-23T13:08:30.367Z,7
2019-05-23T13:09:30.393Z,6.5
2019-05-23T13:10:30.435Z,6.9
2019-05-23T13:11:30.474Z,7
2019-05-23T13:12:30.519Z,6.1
2019-05-23T13:13:30.527Z,6.3
2019-05-23T13:14:30.575Z,5.6
2019-05-23T13:15:30.617Z,6.1
2019-05-23T13:16:30.705Z,5.3
2019-05-23T13:17:30.700Z,5.6
2019-05-23T13:18:30.706Z,6.2
2019-05-23T13:19:30.757Z,6.6
2019-05-23T13:20:30.772Z,5.7
2019-05-23T13:21:30.845Z,6
2019-05-23T13:22:30.794Z,6.2
2019-05-23T13:23:30.962Z,6.1
2019-05-23T13:24:49.154Z,5.6
2019-05-23T13:25:30.916Z,6.5
2019-05-23T13:26:30.944Z,6.3
2019-05-23T13:27:30.962Z,6.6
2019-05-23T13:28:30.999Z,5.6
2019-05-23T13:29:31.018Z,5.1
2019-05-23T13:30:31.075Z,5.1
2019-05-23T13:31:31.082Z,5.5
2019-05-23T13:32:31.124Z,5.8
2019-05-23T13:33:31.162Z,4.3
2019-05-23T13:34:31.208Z,5.4
2019-05-23T13:35:31.232Z,6.8
2019-05-23T13:36:31.241Z,6.3
2019-05-23T13:37:31.268Z,5.6
2019-05-23T13:38:31.283Z,6.4
2019-05-23T13:39:31.324Z,6.5
2019-05-23T13:40:31.339Z,6.5
2019-05-23T13:41:31.421Z,5.6
2019-05-23T13:42:31.378Z,5.8
2019-05-23T13:43:31.424Z,5.7
2019-05-23T13:44:34.897Z,5.4
2019-05-23T13:45:31.430Z,5.9
2019-05-23T13:46:31.461Z,5.1
2019-05-23T13:47:31.478Z,5.1
2019-05-23T13:48:31.522Z,5.5
2019-05-23T13:49:31.584Z,5.8